< < Back
Terminal Aerodrome Forecast


Current Version              Previous Versions:   1  2  3  4  5  6  7  8  9  

Terminal Aerodrome Forecast

259
FTUS42 KJAX 300529
TAFSSI
TAF
KSSI 300529Z 3006/3106 11010KT 6SM -RA BR SCT015 BKN030 OVC060
     FM301600 10012G18KT 6SM -RA BR VCTS SCT015 BKN035CB
     FM310000 11012G18KT 6SM -RA BR SCT015 BKN030 OVC060=

Latest METAR

354
SAUS70 KWBC 301200 RRB
MTRSSI
METAR KSSI 301153Z AUTO 12005KT 10SM FEW090 26/22 A3005 RMK AO2 SLP176
60003 70004 T02610222 10272 20239 51010


USA.gov is the U.S. government's official web portal to all federal, state and local government web resources and services.